sensor_id;sensor_type;location;lat;lon;timestamp;P1;durP1;ratioP1;P2;durP2;ratioP2
12059;SDS011;6091;51.432;6.880;2023-04-03T00:01:08;0.60;;;0.60;;
12059;SDS011;6091;51.432;6.880;2023-04-03T00:03:36;0.50;;;0.50;;
12059;SDS011;6091;51.432;6.880;2023-04-03T00:06:03;0.32;;;0.32;;
12059;SDS011;6091;51.432;6.880;2023-04-03T00:08:33;0.50;;;0.50;;
12059;SDS011;6091;51.432;6.880;2023-04-03T00:11:00;0.50;;;0.50;;
12059;SDS011;6091;51.432;6.880;2023-04-03T00:13:28;0.40;;;0.40;;
12059;SDS011;6091;51.432;6.880;2023-04-03T00:15:55;0.45;;;0.45;;
12059;SDS011;6091;51.432;6.880;2023-04-03T00:18:23;0.47;;;0.47;;
12059;SDS011;6091;51.432;6.880;2023-04-03T00:20:50;0.52;;;0.40;;
12059;SDS011;6091;51.432;6.880;2023-04-03T00:23:17;0.50;;;0.50;;
12059;SDS011;6091;51.432;6.880;2023-04-03T00:25:44;0.40;;;0.40;;
12059;SDS011;6091;51.432;6.880;2023-04-03T00:28:12;0.50;;;0.50;;
12059;SDS011;6091;51.432;6.880;2023-04-03T00:30:39;0.40;;;0.40;;
12059;SDS011;6091;51.432;6.880;2023-04-03T00:33:06;0.40;;;0.40;;
12059;SDS011;6091;51.432;6.880;2023-04-03T00:35:33;0.50;;;0.50;;
12059;SDS011;6091;51.432;6.880;2023-04-03T00:38:01;0.52;;;0.52;;
12059;SDS011;6091;51.432;6.880;2023-04-03T00:40:32;0.40;;;0.40;;
12059;SDS011;6091;51.432;6.880;2023-04-03T00:43:13;0.60;;;0.60;;
12059;SDS011;6091;51.432;6.880;2023-04-03T00:45:50;0.45;;;0.45;;
12059;SDS011;6091;51.432;6.880;2023-04-03T00:48:20;0.60;;;0.60;;
12059;SDS011;6091;51.432;6.880;2023-04-03T00:51:15;0.45;;;0.45;;
12059;SDS011;6091;51.432;6.880;2023-04-03T00:53:49;0.50;;;0.50;;
12059;SDS011;6091;51.432;6.880;2023-04-03T00:56:24;0.50;;;0.50;;
12059;SDS011;6091;51.432;6.880;2023-04-03T00:58:55;0.40;;;0.40;;
12059;SDS011;6091;51.432;6.880;2023-04-03T01:01:31;0.45;;;0.45;;
12059;SDS011;6091;51.432;6.880;2023-04-03T01:03:59;0.60;;;0.60;;
12059;SDS011;6091;51.432;6.880;2023-04-03T01:06:30;0.40;;;0.40;;
12059;SDS011;6091;51.432;6.880;2023-04-03T01:09:03;0.43;;;0.43;;
12059;SDS011;6091;51.432;6.880;2023-04-03T01:11:31;0.50;;;0.50;;
12059;SDS011;6091;51.432;6.880;2023-04-03T01:13:59;0.60;;;0.60;;
12059;SDS011;6091;51.432;6.880;2023-04-03T01:16:28;0.40;;;0.40;;
12059;SDS011;6091;51.432;6.880;2023-04-03T01:18:58;0.50;;;0.50;;
12059;SDS011;6091;51.432;6.880;2023-04-03T01:27:06;0.60;;;0.60;;
12059;SDS011;6091;51.432;6.880;2023-04-03T01:29:36;0.68;;;0.52;;
12059;SDS011;6091;51.432;6.880;2023-04-03T01:32:04;0.60;;;0.60;;
12059;SDS011;6091;51.432;6.880;2023-04-03T01:34:31;0.50;;;0.50;;
12059;SDS011;6091;51.432;6.880;2023-04-03T01:36:59;0.50;;;0.50;;
12059;SDS011;6091;51.432;6.880;2023-04-03T01:39:26;0.40;;;0.40;;
12059;SDS011;6091;51.432;6.880;2023-04-03T01:41:53;0.60;;;0.60;;
12059;SDS011;6091;51.432;6.880;2023-04-03T01:44:20;0.40;;;0.40;;
12059;SDS011;6091;51.432;6.880;2023-04-03T01:46:47;0.70;;;0.70;;
12059;SDS011;6091;51.432;6.880;2023-04-03T01:49:15;0.73;;;0.57;;
12059;SDS011;6091;51.432;6.880;2023-04-03T01:51:42;0.60;;;0.50;;
12059;SDS011;6091;51.432;6.880;2023-04-03T01:54:09;0.50;;;0.50;;
12059;SDS011;6091;51.432;6.880;2023-04-03T01:56:36;0.47;;;0.47;;
12059;SDS011;6091;51.432;6.880;2023-04-03T01:59:05;0.40;;;0.40;;
12059;SDS011;6091;51.432;6.880;2023-04-03T02:01:32;0.60;;;0.60;;
12059;SDS011;6091;51.432;6.880;2023-04-03T02:03:59;0.32;;;0.32;;
12059;SDS011;6091;51.432;6.880;2023-04-03T02:06:27;0.50;;;0.50;;
12059;SDS011;6091;51.432;6.880;2023-04-03T02:08:54;0.40;;;0.40;;
12059;SDS011;6091;51.432;6.880;2023-04-03T02:11:23;0.50;;;0.50;;
12059;SDS011;6091;51.432;6.880;2023-04-03T02:13:51;0.40;;;0.40;;
12059;SDS011;6091;51.432;6.880;2023-04-03T02:16:18;0.57;;;0.57;;
12059;SDS011;6091;51.432;6.880;2023-04-03T02:18:45;0.50;;;0.50;;
12059;SDS011;6091;51.432;6.880;2023-04-03T02:21:12;0.55;;;0.55;;
12059;SDS011;6091;51.432;6.880;2023-04-03T02:23:39;0.68;;;0.68;;
12059;SDS011;6091;51.432;6.880;2023-04-03T02:26:07;0.43;;;0.43;;
12059;SDS011;6091;51.432;6.880;2023-04-03T02:28:38;0.50;;;0.50;;
12059;SDS011;6091;51.432;6.880;2023-04-03T02:31:06;0.47;;;0.47;;
12059;SDS011;6091;51.432;6.880;2023-04-03T02:33:34;0.50;;;0.50;;
12059;SDS011;6091;51.432;6.880;2023-04-03T02:36:06;0.52;;;0.52;;
12059;SDS011;6091;51.432;6.880;2023-04-03T02:38:34;0.60;;;0.60;;
12059;SDS011;6091;51.432;6.880;2023-04-03T02:41:03;0.60;;;0.60;;
12059;SDS011;6091;51.432;6.880;2023-04-03T02:43:33;0.60;;;0.60;;
12059;SDS011;6091;51.432;6.880;2023-04-03T02:46:01;0.40;;;0.40;;
12059;SDS011;6091;51.432;6.880;2023-04-03T02:48:28;0.50;;;0.50;;
12059;SDS011;6091;51.432;6.880;2023-04-03T02:50:55;0.40;;;0.40;;
12059;SDS011;6091;51.432;6.880;2023-04-03T02:53:22;0.60;;;0.60;;
12059;SDS011;6091;51.432;6.880;2023-04-03T02:55:49;0.60;;;0.60;;
12059;SDS011;6091;51.432;6.880;2023-04-03T02:58:16;0.50;;;0.50;;
12059;SDS011;6091;51.432;6.880;2023-04-03T03:00:43;0.57;;;0.57;;
12059;SDS011;6091;51.432;6.880;2023-04-03T03:03:11;0.57;;;0.50;;
12059;SDS011;6091;51.432;6.880;2023-04-03T03:05:39;0.50;;;0.50;;
12059;SDS011;6091;51.432;6.880;2023-04-03T03:08:07;0.40;;;0.40;;
12059;SDS011;6091;51.432;6.880;2023-04-03T03:10:34;0.40;;;0.40;;
12059;SDS011;6091;51.432;6.880;2023-04-03T03:13:02;0.43;;;0.43;;
12059;SDS011;6091;51.432;6.880;2023-04-03T03:15:29;0.40;;;0.40;;
12059;SDS011;6091;51.432;6.880;2023-04-03T03:17:56;0.50;;;0.50;;
12059;SDS011;6091;51.432;6.880;2023-04-03T03:20:24;0.70;;;0.57;;
12059;SDS011;6091;51.432;6.880;2023-04-03T03:22:53;0.50;;;0.50;;
12059;SDS011;6091;51.432;6.880;2023-04-03T03:25:20;0.50;;;0.50;;
12059;SDS011;6091;51.432;6.880;2023-04-03T03:27:48;0.50;;;0.50;;
12059;SDS011;6091;51.432;6.880;2023-04-03T03:30:18;0.47;;;0.47;;
12059;SDS011;6091;51.432;6.880;2023-04-03T03:32:45;0.47;;;0.47;;
12059;SDS011;6091;51.432;6.880;2023-04-03T03:35:12;0.40;;;0.40;;
12059;SDS011;6091;51.432;6.880;2023-04-03T03:37:39;0.40;;;0.40;;
12059;SDS011;6091;51.432;6.880;2023-04-03T03:40:07;0.43;;;0.43;;
12059;SDS011;6091;51.432;6.880;2023-04-03T03:42:35;0.60;;;0.60;;
12059;SDS011;6091;51.432;6.880;2023-04-03T03:45:02;0.52;;;0.40;;
12059;SDS011;6091;51.432;6.880;2023-04-03T03:47:30;0.40;;;0.40;;
12059;SDS011;6091;51.432;6.880;2023-04-03T03:49:57;0.40;;;0.40;;
12059;SDS011;6091;51.432;6.880;2023-04-03T03:52:24;0.40;;;0.40;;
12059;SDS011;6091;51.432;6.880;2023-04-03T03:54:52;0.47;;;0.47;;
12059;SDS011;6091;51.432;6.880;2023-04-03T03:57:19;0.60;;;0.60;;
12059;SDS011;6091;51.432;6.880;2023-04-03T03:59:46;0.40;;;0.40;;
12059;SDS011;6091;51.432;6.880;2023-04-03T04:02:14;0.43;;;0.43;;
12059;SDS011;6091;51.432;6.880;2023-04-03T04:04:42;0.35;;;0.32;;
12059;SDS011;6091;51.432;6.880;2023-04-03T04:07:09;0.50;;;0.50;;
12059;SDS011;6091;51.432;6.880;2023-04-03T04:09:37;0.55;;;0.50;;
12059;SDS011;6091;51.432;6.880;2023-04-03T04:12:04;0.40;;;0.40;;
12059;SDS011;6091;51.432;6.880;2023-04-03T04:14:31;0.30;;;0.30;;
12059;SDS011;6091;51.432;6.880;2023-04-03T04:16:58;0.50;;;0.50;;
12059;SDS011;6091;51.432;6.880;2023-04-03T04:19:25;0.50;;;0.50;;
12059;SDS011;6091;51.432;6.880;2023-04-03T04:21:53;0.45;;;0.45;;
12059;SDS011;6091;51.432;6.880;2023-04-03T04:24:20;0.40;;;0.40;;
12059;SDS011;6091;51.432;6.880;2023-04-03T04:26:49;0.43;;;0.43;;
12059;SDS011;6091;51.432;6.880;2023-04-03T04:29:16;0.40;;;0.40;;
12059;SDS011;6091;51.432;6.880;2023-04-03T04:31:44;0.40;;;0.40;;
12059;SDS011;6091;51.432;6.880;2023-04-03T04:34:11;0.50;;;0.50;;
12059;SDS011;6091;51.432;6.880;2023-04-03T04:36:39;0.30;;;0.30;;
12059;SDS011;6091;51.432;6.880;2023-04-03T04:39:06;0.40;;;0.40;;
12059;SDS011;6091;51.432;6.880;2023-04-03T04:41:34;0.30;;;0.30;;
12059;SDS011;6091;51.432;6.880;2023-04-03T04:44:01;0.40;;;0.40;;
12059;SDS011;6091;51.432;6.880;2023-04-03T04:46:29;0.40;;;0.40;;
12059;SDS011;6091;51.432;6.880;2023-04-03T04:48:56;0.30;;;0.30;;
12059;SDS011;6091;51.432;6.880;2023-04-03T04:51:23;0.50;;;0.50;;
12059;SDS011;6091;51.432;6.880;2023-04-03T04:53:53;0.40;;;0.40;;
12059;SDS011;6091;51.432;6.880;2023-04-03T04:56:21;0.45;;;0.45;;
12059;SDS011;6091;51.432;6.880;2023-04-03T04:58:48;0.40;;;0.40;;
12059;SDS011;6091;51.432;6.880;2023-04-03T05:01:15;0.47;;;0.47;;
12059;SDS011;6091;51.432;6.880;2023-04-03T05:03:43;0.40;;;0.40;;
12059;SDS011;6091;51.432;6.880;2023-04-03T05:06:10;0.30;;;0.30;;
12059;SDS011;6091;51.432;6.880;2023-04-03T05:08:37;0.40;;;0.40;;
12059;SDS011;6091;51.432;6.880;2023-04-03T05:11:04;0.45;;;0.45;;
12059;SDS011;6091;51.432;6.880;2023-04-03T05:13:32;0.40;;;0.40;;
12059;SDS011;6091;51.432;6.880;2023-04-03T05:15:59;0.40;;;0.40;;
12059;SDS011;6091;51.432;6.880;2023-04-03T05:18:26;0.32;;;0.32;;
12059;SDS011;6091;51.432;6.880;2023-04-03T05:20:53;0.40;;;0.40;;
12059;SDS011;6091;51.432;6.880;2023-04-03T05:23:20;0.40;;;0.40;;
12059;SDS011;6091;51.432;6.880;2023-04-03T05:25:47;0.30;;;0.30;;
12059;SDS011;6091;51.432;6.880;2023-04-03T05:28:15;0.40;;;0.40;;
12059;SDS011;6091;51.432;6.880;2023-04-03T05:30:42;0.40;;;0.40;;
12059;SDS011;6091;51.432;6.880;2023-04-03T05:33:09;0.30;;;0.30;;
12059;SDS011;6091;51.432;6.880;2023-04-03T05:35:36;0.75;;;0.50;;
12059;SDS011;6091;51.432;6.880;2023-04-03T05:38:08;0.60;;;0.50;;
12059;SDS011;6091;51.432;6.880;2023-04-03T05:40:35;0.57;;;0.50;;
12059;SDS011;6091;51.432;6.880;2023-04-03T05:43:02;0.80;;;0.50;;
12059;SDS011;6091;51.432;6.880;2023-04-03T05:45:29;0.40;;;0.40;;
12059;SDS011;6091;51.432;6.880;2023-04-03T05:47:56;0.40;;;0.40;;
12059;SDS011;6091;51.432;6.880;2023-04-03T05:50:23;0.40;;;0.40;;
12059;SDS011;6091;51.432;6.880;2023-04-03T05:52:51;0.40;;;0.40;;
12059;SDS011;6091;51.432;6.880;2023-04-03T05:55:22;0.40;;;0.40;;
12059;SDS011;6091;51.432;6.880;2023-04-03T05:57:49;0.45;;;0.45;;
12059;SDS011;6091;51.432;6.880;2023-04-03T06:00:17;0.40;;;0.40;;
12059;SDS011;6091;51.432;6.880;2023-04-03T06:02:45;0.40;;;0.40;;
12059;SDS011;6091;51.432;6.880;2023-04-03T06:05:12;0.50;;;0.40;;
12059;SDS011;6091;51.432;6.880;2023-04-03T06:07:39;0.50;;;0.50;;
12059;SDS011;6091;51.432;6.880;2023-04-03T06:10:07;1.52;;;0.40;;
12059;SDS011;6091;51.432;6.880;2023-04-03T06:12:35;0.47;;;0.40;;
12059;SDS011;6091;51.432;6.880;2023-04-03T06:15:02;0.70;;;0.45;;
12059;SDS011;6091;51.432;6.880;2023-04-03T06:17:30;0.95;;;0.57;;
12059;SDS011;6091;51.432;6.880;2023-04-03T06:19:57;2.08;;;0.50;;
12059;SDS011;6091;51.432;6.880;2023-04-03T06:22:24;2.40;;;0.70;;
12059;SDS011;6091;51.432;6.880;2023-04-03T06:24:52;2.30;;;0.80;;
12059;SDS011;6091;51.432;6.880;2023-04-03T06:27:19;2.17;;;1.20;;
12059;SDS011;6091;51.432;6.880;2023-04-03T06:29:46;4.78;;;1.40;;
12059;SDS011;6091;51.432;6.880;2023-04-03T06:32:15;2.15;;;1.13;;
12059;SDS011;6091;51.432;6.880;2023-04-03T06:34:43;2.08;;;1.20;;
12059;SDS011;6091;51.432;6.880;2023-04-03T06:37:21;2.58;;;1.27;;
12059;SDS011;6091;51.432;6.880;2023-04-03T06:39:52;3.05;;;1.10;;
12059;SDS011;6091;51.432;6.880;2023-04-03T06:42:19;1.17;;;1.00;;
12059;SDS011;6091;51.432;6.880;2023-04-03T06:44:47;0.82;;;0.80;;
12059;SDS011;6091;51.432;6.880;2023-04-03T06:47:14;1.77;;;0.88;;
12059;SDS011;6091;51.432;6.880;2023-04-03T06:49:47;2.55;;;1.00;;
12059;SDS011;6091;51.432;6.880;2023-04-03T06:52:14;2.15;;;0.80;;
12059;SDS011;6091;51.432;6.880;2023-04-03T06:54:41;2.03;;;0.85;;
12059;SDS011;6091;51.432;6.880;2023-04-03T06:57:09;1.33;;;0.80;;
12059;SDS011;6091;51.432;6.880;2023-04-03T06:59:36;1.08;;;0.80;;
12059;SDS011;6091;51.432;6.880;2023-04-03T07:02:03;1.02;;;0.80;;
12059;SDS011;6091;51.432;6.880;2023-04-03T07:04:32;3.13;;;0.80;;
12059;SDS011;6091;51.432;6.880;2023-04-03T07:06:59;1.13;;;0.80;;
12059;SDS011;6091;51.432;6.880;2023-04-03T07:09:27;0.60;;;0.60;;
12059;SDS011;6091;51.432;6.880;2023-04-03T07:11:56;3.10;;;1.00;;
12059;SDS011;6091;51.432;6.880;2023-04-03T07:14:25;0.80;;;0.52;;
12059;SDS011;6091;51.432;6.880;2023-04-03T07:16:54;2.45;;;0.90;;
12059;SDS011;6091;51.432;6.880;2023-04-03T07:19:21;1.75;;;0.80;;
12059;SDS011;6091;51.432;6.880;2023-04-03T07:21:50;2.38;;;1.10;;
12059;SDS011;6091;51.432;6.880;2023-04-03T07:24:17;2.53;;;1.77;;
12059;SDS011;6091;51.432;6.880;2023-04-03T07:26:48;4.95;;;1.50;;
12059;SDS011;6091;51.432;6.880;2023-04-03T07:29:29;4.30;;;1.52;;
12059;SDS011;6091;51.432;6.880;2023-04-03T07:31:59;4.47;;;1.60;;
12059;SDS011;6091;51.432;6.880;2023-04-03T07:34:41;1.92;;;1.40;;
12059;SDS011;6091;51.432;6.880;2023-04-03T07:37:36;2.80;;;1.27;;
12059;SDS011;6091;51.432;6.880;2023-04-03T07:40:04;1.80;;;1.35;;
12059;SDS011;6091;51.432;6.880;2023-04-03T07:42:38;6.50;;;1.40;;
12059;SDS011;6091;51.432;6.880;2023-04-03T07:45:06;3.70;;;1.27;;
12059;SDS011;6091;51.432;6.880;2023-04-03T07:47:37;3.70;;;1.80;;
12059;SDS011;6091;51.432;6.880;2023-04-03T07:50:04;4.03;;;1.23;;
12059;SDS011;6091;51.432;6.880;2023-04-03T07:52:32;2.75;;;1.30;;
12059;SDS011;6091;51.432;6.880;2023-04-03T07:54:59;3.20;;;1.40;;
12059;SDS011;6091;51.432;6.880;2023-04-03T07:57:26;1.73;;;1.25;;
12059;SDS011;6091;51.432;6.880;2023-04-03T07:59:54;2.28;;;1.50;;
12059;SDS011;6091;51.432;6.880;2023-04-03T08:02:21;1.50;;;1.20;;
12059;SDS011;6091;51.432;6.880;2023-04-03T08:04:48;1.40;;;1.30;;
12059;SDS011;6091;51.432;6.880;2023-04-03T08:07:15;2.60;;;1.50;;
12059;SDS011;6091;51.432;6.880;2023-04-03T08:09:42;3.15;;;1.40;;
12059;SDS011;6091;51.432;6.880;2023-04-03T08:12:15;2.85;;;1.52;;
12059;SDS011;6091;51.432;6.880;2023-04-03T08:14:43;4.90;;;1.58;;
12059;SDS011;6091;51.432;6.880;2023-04-03T08:17:11;1.92;;;1.25;;
12059;SDS011;6091;51.432;6.880;2023-04-03T08:19:39;3.80;;;1.10;;
12059;SDS011;6091;51.432;6.880;2023-04-03T08:22:07;3.75;;;1.60;;
12059;SDS011;6091;51.432;6.880;2023-04-03T08:24:34;2.42;;;1.58;;
12059;SDS011;6091;51.432;6.880;2023-04-03T08:27:02;2.47;;;1.30;;
12059;SDS011;6091;51.432;6.880;2023-04-03T08:29:30;4.88;;;1.90;;
12059;SDS011;6091;51.432;6.880;2023-04-03T08:31:58;4.18;;;1.40;;
12059;SDS011;6091;51.432;6.880;2023-04-03T08:34:26;3.92;;;1.50;;
12059;SDS011;6091;51.432;6.880;2023-04-03T08:36:56;5.20;;;1.50;;
12059;SDS011;6091;51.432;6.880;2023-04-03T08:39:23;5.82;;;1.70;;
12059;SDS011;6091;51.432;6.880;2023-04-03T08:41:51;3.10;;;1.55;;
12059;SDS011;6091;51.432;6.880;2023-04-03T08:44:28;2.42;;;1.30;;
12059;SDS011;6091;51.432;6.880;2023-04-03T08:50:11;3.53;;;1.30;;
12059;SDS011;6091;51.432;6.880;2023-04-03T08:52:50;3.92;;;1.67;;
12059;SDS011;6091;51.432;6.880;2023-04-03T08:55:23;4.20;;;1.48;;
12059;SDS011;6091;51.432;6.880;2023-04-03T08:58:01;3.25;;;1.40;;
12059;SDS011;6091;51.432;6.880;2023-04-03T09:00:34;3.80;;;1.52;;
12059;SDS011;6091;51.432;6.880;2023-04-03T09:03:13;5.13;;;1.27;;
12059;SDS011;6091;51.432;6.880;2023-04-03T09:17:46;7.13;;;1.80;;
12059;SDS011;6091;51.432;6.880;2023-04-03T09:23:32;7.38;;;2.60;;
12059;SDS011;6091;51.432;6.880;2023-04-03T09:26:25;6.07;;;2.00;;
12059;SDS011;6091;51.432;6.880;2023-04-03T09:29:02;4.93;;;1.52;;
12059;SDS011;6091;51.432;6.880;2023-04-03T09:31:41;7.45;;;2.00;;
12059;SDS011;6091;51.432;6.880;2023-04-03T09:34:15;3.90;;;1.60;;
12059;SDS011;6091;51.432;6.880;2023-04-03T09:36:58;4.28;;;1.35;;
12059;SDS011;6091;51.432;6.880;2023-04-03T09:39:50;4.68;;;1.75;;
12059;SDS011;6091;51.432;6.880;2023-04-03T09:42:22;3.97;;;1.42;;
12059;SDS011;6091;51.432;6.880;2023-04-03T09:45:18;6.28;;;1.63;;
12059;SDS011;6091;51.432;6.880;2023-04-03T09:48:03;7.55;;;1.92;;
12059;SDS011;6091;51.432;6.880;2023-04-03T09:53:37;5.50;;;1.35;;
12059;SDS011;6091;51.432;6.880;2023-04-03T09:58:50;1.55;;;1.10;;
12059;SDS011;6091;51.432;6.880;2023-04-03T10:01:31;3.47;;;1.50;;
12059;SDS011;6091;51.432;6.880;2023-04-03T10:04:23;1.65;;;1.00;;
12059;SDS011;6091;51.432;6.880;2023-04-03T10:06:51;4.80;;;1.20;;
12059;SDS011;6091;51.432;6.880;2023-04-03T10:09:31;2.35;;;1.30;;
12059;SDS011;6091;51.432;6.880;2023-04-03T10:14:39;3.40;;;1.08;;
12059;SDS011;6091;51.432;6.880;2023-04-03T10:17:34;5.05;;;1.00;;
12059;SDS011;6091;51.432;6.880;2023-04-03T10:20:23;3.08;;;1.10;;
12059;SDS011;6091;51.432;6.880;2023-04-03T10:23:27;1.70;;;0.85;;
12059;SDS011;6091;51.432;6.880;2023-04-03T10:26:15;3.17;;;1.10;;
12059;SDS011;6091;51.432;6.880;2023-04-03T10:28:57;3.10;;;1.08;;
12059;SDS011;6091;51.432;6.880;2023-04-03T10:35:08;3.03;;;0.82;;
12059;SDS011;6091;51.432;6.880;2023-04-03T10:38:12;2.05;;;0.90;;
12059;SDS011;6091;51.432;6.880;2023-04-03T10:47:53;4.55;;;1.00;;
12059;SDS011;6091;51.432;6.880;2023-04-03T10:50:39;2.67;;;1.00;;
12059;SDS011;6091;51.432;6.880;2023-04-03T10:56:21;0.77;;;0.60;;
12059;SDS011;6091;51.432;6.880;2023-04-03T10:59:16;1.90;;;0.82;;
12059;SDS011;6091;51.432;6.880;2023-04-03T11:02:04;1.75;;;0.98;;
12059;SDS011;6091;51.432;6.880;2023-04-03T11:04:59;5.05;;;1.08;;
12059;SDS011;6091;51.432;6.880;2023-04-03T11:07:39;2.15;;;0.68;;
12059;SDS011;6091;51.432;6.880;2023-04-03T11:10:55;0.65;;;0.63;;
12059;SDS011;6091;51.432;6.880;2023-04-03T11:13:19;0.80;;;0.60;;
12059;SDS011;6091;51.432;6.880;2023-04-03T11:16:06;1.17;;;0.80;;
12059;SDS011;6091;51.432;6.880;2023-04-03T11:18:47;3.45;;;0.70;;
12059;SDS011;6091;51.432;6.880;2023-04-03T11:21:26;1.17;;;0.50;;
12059;SDS011;6091;51.432;6.880;2023-04-03T11:24:43;1.13;;;0.73;;
12059;SDS011;6091;51.432;6.880;2023-04-03T11:27:19;1.63;;;0.90;;
12059;SDS011;6091;51.432;6.880;2023-04-03T11:29:53;1.60;;;0.75;;
12059;SDS011;6091;51.432;6.880;2023-04-03T11:35:01;0.70;;;0.70;;
12059;SDS011;6091;51.432;6.880;2023-04-03T11:45:52;1.27;;;0.50;;
12059;SDS011;6091;51.432;6.880;2023-04-03T11:53:40;0.70;;;0.45;;
12059;SDS011;6091;51.432;6.880;2023-04-03T12:01:45;2.63;;;0.63;;
12059;SDS011;6091;51.432;6.880;2023-04-03T12:04:25;3.15;;;0.93;;
12059;SDS011;6091;51.432;6.880;2023-04-03T12:12:31;2.95;;;0.70;;
12059;SDS011;6091;51.432;6.880;2023-04-03T12:15:23;2.97;;;0.88;;
12059;SDS011;6091;51.432;6.880;2023-04-03T12:21:10;2.90;;;0.77;;
12059;SDS011;6091;51.432;6.880;2023-04-03T12:27:13;3.25;;;0.70;;
12059;SDS011;6091;51.432;6.880;2023-04-03T12:30:07;3.25;;;0.80;;
12059;SDS011;6091;51.432;6.880;2023-04-03T12:36:33;4.07;;;0.75;;
12059;SDS011;6091;51.432;6.880;2023-04-03T12:39:25;4.13;;;0.77;;
12059;SDS011;6091;51.432;6.880;2023-04-03T12:45:20;1.90;;;0.70;;
12059;SDS011;6091;51.432;6.880;2023-04-03T12:47:51;2.13;;;0.88;;
12059;SDS011;6091;51.432;6.880;2023-04-03T12:50:27;3.13;;;0.80;;
12059;SDS011;6091;51.432;6.880;2023-04-03T12:55:44;3.78;;;1.00;;
12059;SDS011;6091;51.432;6.880;2023-04-03T12:58:22;2.25;;;0.77;;
12059;SDS011;6091;51.432;6.880;2023-04-03T13:00:58;1.80;;;0.73;;
12059;SDS011;6091;51.432;6.880;2023-04-03T13:03:54;3.40;;;0.75;;
12059;SDS011;6091;51.432;6.880;2023-04-03T13:06:39;2.50;;;0.70;;
12059;SDS011;6091;51.432;6.880;2023-04-03T13:09:19;5.82;;;1.75;;
12059;SDS011;6091;51.432;6.880;2023-04-03T13:14:39;3.78;;;1.10;;
12059;SDS011;6091;51.432;6.880;2023-04-03T13:17:12;2.85;;;0.90;;
12059;SDS011;6091;51.432;6.880;2023-04-03T13:19:43;4.32;;;0.95;;
12059;SDS011;6091;51.432;6.880;2023-04-03T13:25:00;2.00;;;1.05;;
12059;SDS011;6091;51.432;6.880;2023-04-03T13:27:33;5.00;;;1.10;;
12059;SDS011;6091;51.432;6.880;2023-04-03T13:30:04;4.53;;;1.33;;
12059;SDS011;6091;51.432;6.880;2023-04-03T13:32:33;2.95;;;1.00;;
12059;SDS011;6091;51.432;6.880;2023-04-03T13:35:01;1.42;;;1.10;;
12059;SDS011;6091;51.432;6.880;2023-04-03T13:37:53;3.50;;;0.90;;
12059;SDS011;6091;51.432;6.880;2023-04-03T13:40:24;1.75;;;0.85;;
12059;SDS011;6091;51.432;6.880;2023-04-03T13:43:16;2.05;;;0.90;;
12059;SDS011;6091;51.432;6.880;2023-04-03T13:48:48;5.20;;;1.00;;
12059;SDS011;6091;51.432;6.880;2023-04-03T13:51:21;4.72;;;1.10;;
12059;SDS011;6091;51.432;6.880;2023-04-03T13:54:00;1.67;;;0.80;;
12059;SDS011;6091;51.432;6.880;2023-04-03T13:56:44;3.42;;;1.00;;
12059;SDS011;6091;51.432;6.880;2023-04-03T14:06:50;9.23;;;1.30;;
12059;SDS011;6091;51.432;6.880;2023-04-03T14:09:18;2.05;;;1.00;;
12059;SDS011;6091;51.432;6.880;2023-04-03T14:11:48;5.05;;;1.20;;
12059;SDS011;6091;51.432;6.880;2023-04-03T14:14:22;6.35;;;1.40;;
12059;SDS011;6091;51.432;6.880;2023-04-03T14:17:16;4.10;;;1.10;;
12059;SDS011;6091;51.432;6.880;2023-04-03T14:19:52;8.40;;;1.55;;
12059;SDS011;6091;51.432;6.880;2023-04-03T14:22:27;6.50;;;1.27;;
12059;SDS011;6091;51.432;6.880;2023-04-03T14:25:01;2.97;;;1.20;;
12059;SDS011;6091;51.432;6.880;2023-04-03T14:27:50;1.73;;;1.02;;
12059;SDS011;6091;51.432;6.880;2023-04-03T14:30:25;3.72;;;1.23;;
12059;SDS011;6091;51.432;6.880;2023-04-03T14:32:57;2.17;;;1.10;;
12059;SDS011;6091;51.432;6.880;2023-04-03T14:35:27;1.95;;;1.20;;
12059;SDS011;6091;51.432;6.880;2023-04-03T14:37:55;2.75;;;1.15;;
12059;SDS011;6091;51.432;6.880;2023-04-03T14:40:24;4.65;;;1.23;;
12059;SDS011;6091;51.432;6.880;2023-04-03T14:42:53;3.08;;;1.23;;
12059;SDS011;6091;51.432;6.880;2023-04-03T14:45:22;1.65;;;1.20;;
12059;SDS011;6091;51.432;6.880;2023-04-03T14:47:51;2.00;;;1.08;;
12059;SDS011;6091;51.432;6.880;2023-04-03T14:50:22;4.40;;;1.38;;
12059;SDS011;6091;51.432;6.880;2023-04-03T14:52:54;11.13;;;1.83;;
12059;SDS011;6091;51.432;6.880;2023-04-03T14:55:27;3.03;;;1.13;;
12059;SDS011;6091;51.432;6.880;2023-04-03T14:57:54;2.58;;;1.23;;
12059;SDS011;6091;51.432;6.880;2023-04-03T15:00:22;1.70;;;1.15;;
12059;SDS011;6091;51.432;6.880;2023-04-03T15:02:49;3.08;;;1.13;;
12059;SDS011;6091;51.432;6.880;2023-04-03T15:05:19;3.42;;;1.13;;
12059;SDS011;6091;51.432;6.880;2023-04-03T15:07:48;3.13;;;0.95;;
12059;SDS011;6091;51.432;6.880;2023-04-03T15:10:22;1.77;;;1.10;;
12059;SDS011;6091;51.432;6.880;2023-04-03T15:12:53;2.60;;;1.10;;
12059;SDS011;6091;51.432;6.880;2023-04-03T15:15:22;2.45;;;1.08;;
12059;SDS011;6091;51.432;6.880;2023-04-03T15:17:54;1.38;;;1.00;;
12059;SDS011;6091;51.432;6.880;2023-04-03T15:20:26;2.40;;;0.90;;
12059;SDS011;6091;51.432;6.880;2023-04-03T15:22:56;2.53;;;0.77;;
12059;SDS011;6091;51.432;6.880;2023-04-03T15:25:27;3.13;;;0.95;;
12059;SDS011;6091;51.432;6.880;2023-04-03T15:27:55;2.30;;;0.98;;
12059;SDS011;6091;51.432;6.880;2023-04-03T15:30:23;3.35;;;0.95;;
12059;SDS011;6091;51.432;6.880;2023-04-03T15:32:51;2.47;;;0.73;;
12059;SDS011;6091;51.432;6.880;2023-04-03T15:35:19;4.10;;;1.10;;
12059;SDS011;6091;51.432;6.880;2023-04-03T15:37:46;8.18;;;1.25;;
12059;SDS011;6091;51.432;6.880;2023-04-03T15:40:14;3.85;;;1.00;;
12059;SDS011;6091;51.432;6.880;2023-04-03T15:42:41;3.45;;;1.20;;
12059;SDS011;6091;51.432;6.880;2023-04-03T15:45:09;7.45;;;1.70;;
12059;SDS011;6091;51.432;6.880;2023-04-03T15:47:36;8.63;;;1.02;;
12059;SDS011;6091;51.432;6.880;2023-04-03T15:50:04;1.95;;;1.00;;
12059;SDS011;6091;51.432;6.880;2023-04-03T15:52:34;3.20;;;1.10;;
12059;SDS011;6091;51.432;6.880;2023-04-03T15:55:02;1.80;;;1.10;;
12059;SDS011;6091;51.432;6.880;2023-04-03T15:57:31;3.15;;;1.10;;
12059;SDS011;6091;51.432;6.880;2023-04-03T15:59:58;4.00;;;1.02;;
12059;SDS011;6091;51.432;6.880;2023-04-03T16:02:25;1.92;;;1.00;;
12059;SDS011;6091;51.432;6.880;2023-04-03T16:04:54;2.20;;;0.70;;
12059;SDS011;6091;51.432;6.880;2023-04-03T16:07:22;2.42;;;1.00;;
12059;SDS011;6091;51.432;6.880;2023-04-03T16:09:49;5.00;;;1.30;;
12059;SDS011;6091;51.432;6.880;2023-04-03T16:12:19;6.68;;;1.23;;
12059;SDS011;6091;51.432;6.880;2023-04-03T16:14:46;2.00;;;0.90;;
12059;SDS011;6091;51.432;6.880;2023-04-03T16:17:13;3.20;;;0.90;;
12059;SDS011;6091;51.432;6.880;2023-04-03T16:19:40;1.83;;;0.98;;
12059;SDS011;6091;51.432;6.880;2023-04-03T16:22:07;4.70;;;1.10;;
12059;SDS011;6091;51.432;6.880;2023-04-03T16:24:35;1.52;;;0.85;;
12059;SDS011;6091;51.432;6.880;2023-04-03T16:27:02;3.35;;;0.75;;
12059;SDS011;6091;51.432;6.880;2023-04-03T16:29:29;2.42;;;1.20;;
12059;SDS011;6091;51.432;6.880;2023-04-03T16:31:56;3.58;;;0.90;;
12059;SDS011;6091;51.432;6.880;2023-04-03T16:34:24;1.80;;;0.90;;
12059;SDS011;6091;51.432;6.880;2023-04-03T16:36:52;3.50;;;0.93;;
12059;SDS011;6091;51.432;6.880;2023-04-03T16:39:20;1.33;;;0.77;;
12059;SDS011;6091;51.432;6.880;2023-04-03T16:41:47;2.78;;;1.08;;
12059;SDS011;6091;51.432;6.880;2023-04-03T16:44:14;2.05;;;0.80;;
12059;SDS011;6091;51.432;6.880;2023-04-03T16:46:41;3.72;;;0.80;;
12059;SDS011;6091;51.432;6.880;2023-04-03T16:49:08;2.45;;;1.00;;
12059;SDS011;6091;51.432;6.880;2023-04-03T16:51:36;1.75;;;0.90;;
12059;SDS011;6091;51.432;6.880;2023-04-03T16:54:03;2.33;;;0.80;;
12059;SDS011;6091;51.432;6.880;2023-04-03T16:56:30;2.75;;;0.60;;
12059;SDS011;6091;51.432;6.880;2023-04-03T16:58:58;1.10;;;1.00;;
12059;SDS011;6091;51.432;6.880;2023-04-03T17:01:25;2.08;;;0.68;;
12059;SDS011;6091;51.432;6.880;2023-04-03T17:03:52;2.10;;;0.80;;
12059;SDS011;6091;51.432;6.880;2023-04-03T17:06:20;1.27;;;0.77;;
12059;SDS011;6091;51.432;6.880;2023-04-03T17:08:50;1.23;;;0.80;;
12059;SDS011;6091;51.432;6.880;2023-04-03T17:11:18;2.00;;;0.75;;